Time;durP1;ratioP1;P1;durP2;ratioP2;P2;SDS_P1;SDS_P2;PMS_P1;PMS_P2;Temp;Humidity;BMP_temperature;BMP_pressure;BME280_temperature;BME280_humidity;BME280_pressure;Samples;Min_cycle;Max_cycle;Signal;HPM_P1;HPM_P2
2022/06/13 00:01:32;;;;;;;5.65;2.63;;;;;;;19.44;59.44;92861.53;4789690;29;20135;-77
2022/06/13 00:04:00;;;;;;;7.57;3.03;;;;;;;19.44;59.53;92861.53;4772901;29;20039;-77
2022/06/13 00:06:26;;;;;;;4.93;2.60;;;;;;;19.40;60.28;92861.41;4792882;30;20078;-77
2022/06/13 00:08:52;;;;;;;5.28;2.80;;;;;;;19.38;60.07;92854.91;4792911;30;20397;-77
2022/06/13 00:11:37;;;;;;;4.68;2.50;;;;;;;19.38;59.76;92854.91;4792873;30;20134;-77
2022/06/13 00:14:03;;;;;;;7.32;2.80;;;;;;;19.38;59.17;92852.25;4792924;30;20070;-77
2022/06/13 00:16:29;;;;;;;5.18;2.60;;;;;;;19.41;59.25;92852.38;4776614;30;20451;-77
2022/06/13 00:18:56;;;;;;;6.45;3.00;;;;;;;19.44;59.07;92848.28;4776543;30;20039;-77
2022/06/13 00:21:28;;;;;;;5.20;2.50;;;;;;;19.45;58.91;92852.47;4776876;30;20051;-77
2022/06/13 00:23:54;;;;;;;6.55;2.50;;;;;;;19.46;59.12;92846.06;4776895;30;20043;-77
2022/06/13 00:26:22;;;;;;;7.35;2.60;;;;;;;19.46;58.98;92848.72;4776769;30;20046;-76
2022/06/13 00:28:49;;;;;;;5.85;3.20;;;;;;;19.47;58.86;92851.03;4776360;30;20039;-77
2022/06/13 00:31:15;;;;;;;6.15;3.35;;;;;;;19.46;59.42;92854.78;4776203;30;20055;-76
2022/06/13 00:33:41;;;;;;;5.75;3.20;;;;;;;19.46;59.50;92854.78;4761636;30;20048;-77
2022/06/13 00:36:07;;;;;;;12.43;3.42;;;;;;;19.45;59.26;92855.13;4777011;30;20043;-77
2022/06/13 00:38:33;;;;;;;4.78;3.00;;;;;;;19.45;59.41;92847.91;4792670;30;20475;-77
2022/06/13 00:41:20;;;;;;;7.93;3.20;;;;;;;19.44;60.08;92845.63;4776124;30;20056;-77
2022/06/13 00:43:47;;;;;;;6.57;3.20;;;;;;;19.42;60.10;92842.50;4776219;30;20035;-77
2022/06/13 00:46:21;;;;;;;5.68;3.15;;;;;;;19.41;60.16;92841.75;4791987;30;20035;-77
2022/06/13 00:48:55;;;;;;;7.47;3.05;;;;;;;19.41;59.76;92844.41;4775642;30;20509;-77
2022/06/13 00:51:21;;;;;;;5.72;3.10;;;;;;;19.42;60.27;92839.88;4773620;30;20046;-77
2022/06/13 00:53:47;;;;;;;11.25;3.25;;;;;;;19.41;60.24;92847.06;4772943;30;20039;-77
2022/06/13 00:56:24;;;;;;;7.60;3.40;;;;;;;19.41;60.26;92843.59;4773105;30;20043;-76
2022/06/13 00:58:59;;;;;;;5.53;3.10;;;;;;;19.38;60.36;92841.63;4789167;30;20031;-76
2022/06/13 01:01:28;;;;;;;8.00;3.03;;;;;;;19.37;60.39;92840.09;4788936;29;20058;-76
2022/06/13 01:04:02;;;;;;;7.10;3.45;;;;;;;19.35;60.40;92843.06;4789242;30;20515;-76
2022/06/13 01:06:29;;;;;;;5.47;3.10;;;;;;;19.35;61.01;92845.72;4772820;30;20055;-76
2022/06/13 01:08:56;;;;;;;6.93;3.58;;;;;;;19.33;60.90;92843.38;4772584;30;20036;-76
2022/06/13 01:11:24;;;;;;;6.38;4.07;;;;;;;19.33;60.67;92840.72;4788907;30;20051;-76
2022/06/13 01:14:17;;;;;;;6.70;3.33;;;;;;;19.34;60.54;92847.59;4788511;30;20057;-77
2022/06/13 01:16:53;;;;;;;9.40;4.10;;;;;;;19.34;60.70;92837.00;4771623;30;20043;-76
2022/06/13 01:19:53;;;;;;;7.15;3.30;;;;;;;19.41;59.75;92833.00;4772084;30;20039;-76
2022/06/13 01:22:34;;;;;;;5.43;2.92;;;;;;;19.46;58.66;92830.13;4772745;30;20039;-76
2022/06/13 01:28:41;;;;;;;6.35;3.00;;;;;;;19.62;57.46;92828.34;4788252;30;20089;-76
2022/06/13 01:31:10;;;;;;;;;;;;;;;19.69;56.77;92820.59;4772718;30;20047;-76
2022/06/13 01:33:45;;;;;;;7.15;2.70;;;;;;;19.75;56.10;92824.59;4772114;30;20379;-76
2022/06/13 01:36:22;;;;;;;6.40;2.58;;;;;;;19.87;54.99;92812.41;4788284;30;20035;-76
2022/06/13 01:39:13;;;;;;;5.90;2.53;;;;;;;19.91;54.91;92813.28;4788092;30;20046;-76
2022/06/13 01:42:04;;;;;;;4.88;2.67;;;;;;;20.00;54.14;92813.16;4772345;30;20043;-76
2022/06/13 01:44:35;;;;;;;4.40;2.70;;;;;;;20.06;54.16;92817.09;4788473;30;20047;-76
2022/06/13 01:47:07;;;;;;;6.40;2.58;;;;;;;20.09;53.63;92803.91;4771957;30;20585;-76
2022/06/13 01:49:56;;;;;;;6.78;2.53;;;;;;;20.11;53.93;92803.59;4771986;30;20493;-76
2022/06/13 01:52:28;;;;;;;7.10;2.60;;;;;;;20.15;53.67;92796.47;4752250;30;20047;-76
2022/06/13 01:54:59;;;;;;;4.28;2.47;;;;;;;20.15;53.61;92799.13;4771756;30;20414;-76
2022/06/13 01:57:30;;;;;;;6.78;2.40;;;;;;;20.19;53.27;92794.69;4772125;30;20043;-76
2022/06/13 02:00:04;;;;;;;5.45;2.33;;;;;;;20.47;52.45;92788.59;4787851;30;20067;-76
2022/06/13 02:02:55;;;;;;;7.45;2.55;;;;;;;20.58;51.22;92761.19;4771786;30;20055;-76
2022/06/13 02:05:32;;;;;;;5.90;2.17;;;;;;;20.77;50.63;92746.44;4772030;30;20047;-77
2022/06/13 02:08:08;;;;;;;4.50;2.22;;;;;;;20.71;51.04;92750.47;4771699;30;20039;-77
2022/06/13 02:10:39;;;;;;;6.25;2.78;;;;;;;20.56;51.76;92747.47;4771523;30;20138;-77
2022/06/13 02:13:12;;;;;;;4.00;2.30;;;;;;;20.48;52.63;92751.03;4787711;30;20050;-77
2022/06/13 02:15:49;;;;;;;7.80;2.35;;;;;;;20.36;52.42;92749.22;4787548;30;20095;-77
2022/06/13 02:18:22;;;;;;;4.00;2.47;;;;;;;20.31;52.76;92748.66;4787623;30;20035;-77
2022/06/13 02:20:52;;;;;;;4.45;2.50;;;;;;;20.25;53.26;92752.72;4787539;30;20039;-77
2022/06/13 02:23:25;;;;;;;4.40;2.38;;;;;;;20.16;53.42;92748.31;4787596;30;20034;-77
2022/06/13 02:26:25;;;;;;;6.10;2.65;;;;;;;20.16;53.76;92758.16;4787667;30;20039;-77
2022/06/13 02:28:59;;;;;;;4.75;2.50;;;;;;;20.13;53.83;92759.63;4783406;29;20093;-77
2022/06/13 02:31:32;;;;;;;5.32;2.40;;;;;;;20.13;53.69;92749.00;4787390;30;20051;-77
2022/06/13 02:34:06;;;;;;;4.25;2.47;;;;;;;20.08;53.76;92746.56;4787589;30;20043;-77
2022/06/13 02:36:41;;;;;;;5.10;2.45;;;;;;;20.07;54.02;92750.34;4771335;30;20031;-77
2022/06/13 02:39:24;;;;;;;4.72;2.47;;;;;;;20.02;54.03;92753.25;4771260;30;20089;-77
2022/06/13 02:41:56;;;;;;;4.82;2.50;;;;;;;19.99;54.18;92751.25;4787235;30;20039;-77
2022/06/13 02:44:37;;;;;;;5.28;2.45;;;;;;;19.95;54.11;92763.69;4787363;30;20035;-77
2022/06/13 02:47:15;;;;;;;5.25;2.70;;;;;;;19.89;54.53;92754.41;4787685;30;20112;-77
2022/06/13 02:50:12;;;;;;;6.28;2.70;;;;;;;19.85;55.31;92748.22;4786903;30;20039;-77
2022/06/13 02:52:49;;;;;;;5.45;2.65;;;;;;;19.79;55.70;92754.84;4786902;30;20039;-77
2022/06/13 02:55:17;;;;;;;7.32;2.75;;;;;;;19.71;56.05;92759.22;4771438;30;20311;-77
2022/06/13 02:57:52;;;;;;;4.28;2.50;;;;;;;19.60;57.08;92758.09;4787070;30;20042;-76
2022/06/13 03:00:30;;;;;;;4.10;2.60;;;;;;;19.37;58.29;92760.47;4771007;30;20046;-76
2022/06/13 03:03:12;;;;;;;5.15;2.70;;;;;;;19.24;58.47;92762.34;4786986;30;20042;-76
2022/06/13 03:05:46;;;;;;;5.47;2.70;;;;;;;19.14;58.84;92760.91;4786913;30;20046;-77
2022/06/13 03:08:18;;;;;;;6.38;2.75;;;;;;;19.06;59.31;92751.19;4786822;30;20058;-76
2022/06/13 03:10:58;;;;;;;5.07;2.80;;;;;;;18.97;59.79;92750.53;4770957;30;20039;-76
2022/06/13 03:14:01;;;;;;;5.55;2.60;;;;;;;18.91;59.96;92750.75;4770599;30;20051;-77
2022/06/13 03:16:36;;;;;;;5.45;3.00;;;;;;;18.85;60.50;92752.06;4770785;30;20035;-76
2022/06/13 03:19:23;;;;;;;5.32;2.53;;;;;;;18.79;60.92;92766.63;4786883;30;20035;-76
2022/06/13 03:21:54;;;;;;;8.20;2.90;;;;;;;18.72;60.98;92766.38;4787097;30;20695;-76
2022/06/13 03:24:32;;;;;;;6.80;2.65;;;;;;;18.61;61.65;92758.06;4770660;30;20039;-76
2022/06/13 03:27:03;;;;;;;7.25;2.75;;;;;;;18.51;62.33;92764.59;4786638;30;20043;-76
2022/06/13 03:29:40;;;;;;;7.97;3.08;;;;;;;18.46;62.30;92761.34;4786548;30;20111;-76
2022/06/13 03:32:15;;;;;;;5.95;2.78;;;;;;;18.39;62.36;92756.59;4770632;30;20071;-76
2022/06/13 03:34:54;;;;;;;5.55;2.70;;;;;;;18.32;63.43;92761.66;4786429;30;20418;-76
2022/06/13 03:37:26;;;;;;;9.95;2.92;;;;;;;18.28;63.19;92766.06;4786543;30;20039;-76
2022/06/13 03:40:06;;;;;;;6.70;2.90;;;;;;;18.24;63.39;92760.66;4787643;29;20110;-76
2022/06/13 03:43:11;;;;;;;8.00;2.78;;;;;;;18.20;63.85;92765.03;4790316;30;20460;-76
2022/06/13 03:45:42;;;;;;;8.98;3.30;;;;;;;18.17;64.23;92756.97;4752042;30;20044;-77
2022/06/13 03:48:15;;;;;;;11.50;2.72;;;;;;;18.15;64.09;92761.81;4784543;30;20062;-77
2022/06/13 03:50:47;;;;;;;6.55;2.78;;;;;;;18.12;64.18;92757.19;4774442;30;20502;-77
2022/06/13 03:53:20;;;;;;;6.20;2.92;;;;;;;18.14;64.23;92763.69;4773907;30;20051;-77
2022/06/13 03:56:09;;;;;;;6.70;2.60;;;;;;;18.12;64.63;92762.47;4790273;30;20089;-77
2022/06/13 03:58:40;;;;;;;6.03;3.17;;;;;;;18.07;64.47;92761.56;4774276;30;20405;-77
2022/06/13 04:01:17;;;;;;;11.60;3.00;;;;;;;18.05;64.60;92763.00;4789947;29;20056;-77
2022/06/13 04:03:43;;;;;;;7.25;2.88;;;;;;;18.04;64.74;92759.59;4789830;30;20046;-77
2022/06/13 04:06:36;;;;;;;5.45;3.13;;;;;;;17.99;65.54;92759.78;4744283;30;20377;-77
2022/06/13 04:09:07;;;;;;;7.55;3.50;;;;;;;17.95;65.91;92758.88;4789899;30;20079;-76
2022/06/13 04:12:20;;;;;;;5.43;2.77;;;;;;;17.92;65.76;92764.81;4773481;30;20502;-77
2022/06/13 04:14:55;;;;;;;8.52;2.90;;;;;;;17.91;65.96;92765.94;4746168;30;20098;-77
2022/06/13 04:17:29;;;;;;;5.28;2.90;;;;;;;17.91;66.26;92759.84;4789848;30;20080;-77
2022/06/13 04:20:08;;;;;;;5.82;2.95;;;;;;;17.91;66.43;92765.16;4789658;30;20039;-77
2022/06/13 04:22:56;;;;;;;6.95;2.78;;;;;;;17.92;66.38;92770.09;4790049;30;20427;-77
2022/06/13 04:25:27;;;;;;;5.57;2.95;;;;;;;17.90;66.92;92761.75;4790067;30;20074;-77
2022/06/13 04:28:17;;;;;;;7.28;3.17;;;;;;;17.93;66.92;92773.56;4773877;30;20502;-77
2022/06/13 04:30:44;;;;;;;5.22;2.85;;;;;;;17.94;67.22;92767.16;4789813;30;20041;-77
2022/06/13 04:33:19;;;;;;;6.32;2.92;;;;;;;17.92;67.69;92759.50;4772990;30;20047;-77
2022/06/13 04:35:47;;;;;;;8.18;3.17;;;;;;;17.95;67.56;92764.19;4788836;30;20074;-76
2022/06/13 04:38:15;;;;;;;4.90;2.92;;;;;;;18.02;67.03;92764.44;4789301;30;20031;-77
2022/06/13 04:40:46;;;;;;;4.82;3.00;;;;;;;18.08;66.77;92760.47;4797898;29;20515;-77
2022/06/13 04:43:15;;;;;;;9.32;3.22;;;;;;;18.13;66.91;92764.03;4774825;29;20130;-76
2022/06/13 04:45:56;;;;;;;4.93;3.17;;;;;;;18.16;67.26;92766.78;4803779;29;20066;-77
2022/06/13 04:48:22;;;;;;;10.13;3.60;;;;;;;18.18;67.73;92758.53;4803356;29;20060;-78
2022/06/13 04:50:57;;;;;;;4.90;3.10;;;;;;;18.22;67.51;92768.16;4814536;29;20034;-79
2022/06/13 04:53:29;;;;;;;8.93;3.53;;;;;;;18.26;67.37;92752.34;4811824;29;20031;-80
2022/06/13 04:55:55;;;;;;;9.13;3.30;;;;;;;18.29;67.45;92755.13;4810118;29;20039;-79
2022/06/13 04:58:36;;;;;;;7.55;3.83;;;;;;;18.37;67.65;92758.78;4813586;29;20016;-79
2022/06/13 05:01:22;;;;;;;6.85;3.22;;;;;;;18.46;67.29;92761.34;4800126;29;20031;-78
2022/06/13 05:03:50;;;;;;;4.93;3.13;;;;;;;18.55;66.98;92769.22;4808879;29;20038;-79
2022/06/13 05:06:18;;;;;;;5.38;3.13;;;;;;;18.63;67.44;92758.53;4791709;29;20047;-78
2022/06/13 05:08:44;;;;;;;6.95;3.47;;;;;;;18.72;67.78;92763.72;4799627;29;20275;-79
2022/06/13 05:11:23;;;;;;;5.30;3.20;;;;;;;18.78;68.31;92757.16;4807104;29;20477;-79
2022/06/13 05:14:15;;;;;;;7.85;3.63;;;;;;;18.88;67.58;92762.00;4789184;30;20044;-78
2022/06/13 05:16:59;;;;;;;8.48;3.38;;;;;;;18.99;67.63;92767.66;4801848;30;20059;-78
2022/06/13 05:19:49;;;;;;;7.82;3.10;;;;;;;19.10;68.54;92768.75;4799724;29;20050;-78
2022/06/13 05:22:31;;;;;;;6.65;3.47;;;;;;;19.20;68.07;92762.22;4785231;30;20047;-79
2022/06/13 05:25:24;;;;;;;10.75;3.50;;;;;;;19.29;67.54;92764.75;4801733;30;20107;-79
2022/06/13 05:27:50;;;;;;;5.93;3.58;;;;;;;19.39;68.15;92760.91;4800660;30;20069;-80
2022/06/13 05:30:17;;;;;;;6.05;3.50;;;;;;;19.52;67.48;92759.75;4762253;29;20038;-78
2022/06/13 05:32:44;;;;;;;6.68;3.50;;;;;;;19.74;68.53;92766.50;4801306;29;20074;-78
2022/06/13 05:35:19;;;;;;;5.32;3.58;;;;;;;19.73;68.37;92768.38;4809101;29;20050;-78
2022/06/13 05:37:46;;;;;;;6.18;3.72;;;;;;;19.79;67.96;92768.13;4801539;29;20070;-78
2022/06/13 05:40:17;;;;;;;9.27;3.60;;;;;;;19.88;68.35;92766.91;4799308;30;20031;-78
2022/06/13 05:42:44;;;;;;;8.38;3.65;;;;;;;20.03;68.15;92756.66;4783236;30;20073;-78
2022/06/13 05:45:14;;;;;;;5.65;3.25;;;;;;;20.53;66.84;92756.09;4784761;30;20502;-78
2022/06/13 05:47:42;;;;;;;12.25;3.65;;;;;;;21.25;64.63;92751.75;4801629;30;20135;-79
2022/06/13 05:50:16;;;;;;;8.32;3.33;;;;;;;21.96;59.88;92745.31;4802014;30;20069;-79
2022/06/13 05:52:43;;;;;;;9.50;3.92;;;;;;;22.60;59.67;92740.41;4802119;30;20098;-78
2022/06/13 05:55:10;;;;;;;12.65;4.38;;;;;;;22.66;59.36;92744.34;4787406;30;20425;-78
2022/06/13 05:57:38;;;;;;;9.05;4.10;;;;;;;22.95;57.97;92741.38;4786622;30;20039;-79
2022/06/13 06:00:10;;;;;;;9.27;4.35;;;;;;;23.25;56.54;92739.56;4801691;30;20047;-80
2022/06/13 06:02:37;;;;;;;7.68;3.90;;;;;;;23.60;54.86;92735.88;4800254;29;20070;-79
2022/06/13 06:05:03;;;;;;;8.50;4.10;;;;;;;24.23;52.99;92737.06;4802715;30;20051;-79
2022/06/13 06:07:32;;;;;;;7.82;4.20;;;;;;;24.62;52.22;92739.41;4785997;30;20043;-79
2022/06/13 06:09:59;;;;;;;8.45;4.35;;;;;;;25.03;51.28;92742.03;4802371;30;20047;-79
2022/06/13 06:12:25;;;;;;;9.43;4.55;;;;;;;25.41;50.39;92732.03;4786995;30;20438;-79
2022/06/13 06:15:11;;;;;;;12.52;4.70;;;;;;;25.86;48.49;92740.69;4784786;30;20081;-79
2022/06/13 06:17:37;;;;;;;11.55;4.68;;;;;;;26.20;48.52;92745.09;4785773;30;20043;-80
2022/06/13 06:20:03;;;;;;;13.63;4.47;;;;;;;26.60;47.37;92754.06;4787012;30;20035;-79
2022/06/13 06:22:29;;;;;;;12.95;4.55;;;;;;;26.95;46.17;92753.34;4802347;30;20426;-80
2022/06/13 06:24:54;;;;;;;8.50;4.90;;;;;;;27.19;45.79;92744.53;4802511;30;20058;-79
2022/06/13 06:27:20;;;;;;;11.90;4.07;;;;;;;26.68;48.50;92752.91;4785779;30;20050;-79
2022/06/13 06:29:45;;;;;;;12.98;4.80;;;;;;;25.99;48.56;92753.81;4785009;30;20048;-79
2022/06/13 06:32:11;;;;;;;9.70;4.68;;;;;;;25.37;52.37;92747.28;4785425;30;20070;-79
2022/06/13 06:34:37;;;;;;;10.00;4.65;;;;;;;24.98;55.20;92753.09;4771741;30;20031;-79
2022/06/13 06:37:04;;;;;;;13.57;5.10;;;;;;;24.45;57.35;92751.44;4787448;30;20111;-79
2022/06/13 06:39:30;;;;;;;12.13;4.68;;;;;;;24.72;56.92;92754.78;4785219;30;20035;-78
2022/06/13 06:41:56;;;;;;;9.38;4.30;;;;;;;24.40;57.49;92761.69;4802139;30;20043;-78
2022/06/13 06:44:40;;;;;;;17.52;4.72;;;;;;;23.92;57.92;92756.16;4785238;30;20134;-78
2022/06/13 06:47:07;;;;;;;13.02;4.80;;;;;;;23.94;58.81;92764.59;4786447;30;20414;-79
2022/06/13 06:49:37;;;;;;;8.65;4.18;;;;;;;23.58;60.28;92769.44;4785889;30;20027;-79
2022/06/13 06:52:05;;;;;;;7.05;3.92;;;;;;;23.95;59.08;92774.16;4801344;30;20118;-78
2022/06/13 07:00:06;;;;;;;10.13;3.58;;;;;;;23.32;55.45;92770.97;4819923;29;20042;-78
2022/06/13 07:02:32;;;;;;;5.95;3.30;;;;;;;23.28;56.71;92765.59;4800433;29;20054;-79
2022/06/13 07:05:04;;;;;;;9.85;3.42;;;;;;;23.25;59.62;92768.19;4833978;29;20022;-78
2022/06/13 07:07:29;;;;;;;;;;;;;;;23.25;59.81;92768.19;4820371;29;20040;-79
2022/06/13 07:09:55;;;;;;;6.13;3.20;;;;;;;23.33;56.32;92769.84;4819793;29;19931;-78
2022/06/13 07:12:20;;;;;;;7.78;3.33;;;;;;;23.19;55.87;92778.41;4819398;29;20063;-78
2022/06/13 07:14:46;;;;;;;7.40;3.60;;;;;;;23.14;57.02;92775.25;4818579;29;20047;-78
2022/06/13 07:17:13;;;;;;;6.35;3.20;;;;;;;23.34;57.45;92773.28;4818435;29;20038;-78
2022/06/13 07:19:40;;;;;;;5.63;3.40;;;;;;;23.28;57.37;92759.44;4818810;29;20038;-78
2022/06/13 07:22:07;;;;;;;6.22;3.83;;;;;;;23.45;58.97;92764.28;4820515;29;20050;-79
2022/06/13 07:24:34;;;;;;;5.97;3.42;;;;;;;23.60;58.62;92770.63;4820920;29;20045;-78
2022/06/13 07:27:02;;;;;;;8.38;3.40;;;;;;;23.69;58.35;92765.00;4819181;29;20038;-78
2022/06/13 07:29:27;;;;;;;7.00;3.67;;;;;;;23.60;58.84;92762.59;4819001;29;20043;-79
2022/06/13 07:32:00;;;;;;;9.88;3.60;;;;;;;23.24;59.82;92763.97;4818036;29;20053;-79
2022/06/13 07:34:29;;;;;;;7.38;3.70;;;;;;;22.94;61.38;92766.50;4819569;29;20057;-79
2022/06/13 07:36:58;;;;;;;7.70;3.75;;;;;;;23.11;60.56;92771.41;4820677;29;20046;-79
2022/06/13 07:39:24;;;;;;;8.93;4.18;;;;;;;23.41;59.90;92774.16;4833585;29;20062;-78
2022/06/13 07:41:51;;;;;;;8.18;3.95;;;;;;;23.52;59.81;92774.31;4796491;29;20062;-78
2022/06/13 07:44:27;;;;;;;7.75;3.40;;;;;;;23.62;60.83;92771.03;4789425;29;20043;-79
2022/06/13 07:46:53;;;;;;;8.98;3.42;;;;;;;23.78;59.37;92768.22;4790244;29;20127;-79
2022/06/13 07:49:19;;;;;;;7.65;3.35;;;;;;;23.92;58.01;92770.31;4796409;29;20129;-77
2022/06/13 07:51:45;;;;;;;9.00;3.50;;;;;;;23.92;59.58;92769.53;4793903;29;20091;-78
2022/06/13 07:54:11;;;;;;;6.18;3.58;;;;;;;23.81;58.29;92769.41;4785909;29;20047;-77
2022/06/13 07:56:38;;;;;;;7.75;3.30;;;;;;;23.99;59.65;92770.38;4792432;29;20112;-78
2022/06/13 07:59:05;;;;;;;11.27;3.45;;;;;;;23.92;59.03;92769.53;4803318;29;20066;-77
2022/06/13 08:01:31;;;;;;;5.20;3.33;;;;;;;23.94;58.21;92772.63;4796297;29;20083;-78
2022/06/13 08:03:58;;;;;;;8.68;3.50;;;;;;;24.02;58.89;92768.88;4796971;29;20043;-78
2022/06/13 08:06:24;;;;;;;6.25;3.15;;;;;;;23.99;58.28;92764.28;4762827;30;20039;-78
2022/06/13 08:08:51;;;;;;;9.50;3.17;;;;;;;24.01;55.99;92772.72;4802810;29;20039;-78
2022/06/13 08:11:26;;;;;;;5.15;3.00;;;;;;;23.99;56.97;92774.97;4788871;29;20047;-78
2022/06/13 08:13:51;;;;;;;7.13;3.33;;;;;;;24.02;56.14;92768.88;4787426;29;20039;-76
2022/06/13 08:16:17;;;;;;;5.00;3.10;;;;;;;23.78;58.99;92768.22;4803713;29;20042;-77
2022/06/13 08:18:43;;;;;;;8.48;3.05;;;;;;;23.59;58.57;92768.28;4802367;29;20046;-77
2022/06/13 08:21:11;;;;;;;8.25;2.97;;;;;;;23.82;57.78;92771.72;4771254;29;20042;-77
2022/06/13 08:23:37;;;;;;;7.20;2.90;;;;;;;23.77;59.08;92765.91;4789353;29;20100;-77
2022/06/13 08:26:03;;;;;;;7.53;3.00;;;;;;;24.08;57.64;92760.19;4756620;30;20055;-77
2022/06/13 08:28:29;;;;;;;6.25;2.50;;;;;;;24.22;53.72;92762.25;4787898;30;20043;-77
2022/06/13 08:31:01;;;;;;;5.75;2.38;;;;;;;24.29;53.61;92762.31;4789484;30;20490;-78
2022/06/13 08:33:27;;;;;;;5.80;2.55;;;;;;;24.29;53.53;92764.25;4784338;29;20047;-77
2022/06/13 08:35:53;;;;;;;6.38;2.78;;;;;;;24.44;57.78;92757.16;4793831;29;20508;-77
2022/06/13 08:38:20;;;;;;;7.47;3.17;;;;;;;24.08;57.16;92754.06;4758176;30;20114;-77
2022/06/13 08:40:52;;;;;;;5.82;2.78;;;;;;;24.01;56.82;92756.66;4790109;29;20065;-78
2022/06/13 08:43:17;;;;;;;7.10;2.70;;;;;;;24.19;57.46;92757.66;4789140;30;20035;-77
2022/06/13 08:45:50;;;;;;;5.18;2.80;;;;;;;24.18;54.03;92761.44;4789386;30;20118;-76
2022/06/13 08:48:36;;;;;;;7.05;2.40;;;;;;;24.14;56.44;92755.31;4772528;30;20410;-77
2022/06/13 08:51:11;;;;;;;6.57;2.70;;;;;;;24.30;54.80;92763.13;4790373;29;20043;-77
2022/06/13 08:53:54;;;;;;;5.72;2.78;;;;;;;24.42;55.50;92762.84;4788939;30;20089;-77
2022/06/13 08:56:24;;;;;;;6.05;2.60;;;;;;;24.29;53.58;92756.22;4796358;29;20032;-78
2022/06/13 08:59:23;;;;;;;4.85;2.70;;;;;;;24.17;54.31;92753.78;4790211;29;20050;-78
2022/06/13 09:02:14;;;;;;;5.30;2.50;;;;;;;24.21;54.05;92752.69;4778964;30;20084;-78
2022/06/13 09:04:43;;;;;;;7.35;2.53;;;;;;;24.26;54.60;92752.38;4788316;29;20050;-76
2022/06/13 09:07:23;;;;;;;3.65;2.20;;;;;;;24.21;52.64;92760.72;4788122;29;20043;-76
2022/06/13 09:10:11;;;;;;;4.57;2.38;;;;;;;24.42;52.20;92762.09;4787848;29;20126;-76
2022/06/13 09:12:48;;;;;;;3.60;2.40;;;;;;;24.58;49.67;92760.00;4803400;29;20043;-76
2022/06/13 09:15:20;;;;;;;6.38;2.30;;;;;;;24.67;49.92;92754.34;4804830;29;20043;-76
2022/06/13 09:18:27;;;;;;;5.65;2.42;;;;;;;24.88;48.46;92756.44;4791266;29;20047;-76
2022/06/13 09:21:00;;;;;;;4.88;2.40;;;;;;;25.15;49.12;92757.06;4784675;29;20067;-77
2022/06/13 09:23:41;;;;;;;5.28;2.40;;;;;;;25.37;46.52;92741.94;4803415;29;20557;-77
2022/06/13 09:26:21;;;;;;;5.32;2.40;;;;;;;25.14;46.17;92758.97;4804124;29;20044;-77
2022/06/13 09:29:04;;;;;;;4.43;2.60;;;;;;;25.25;48.43;92752.97;4804489;29;20042;-76
2022/06/13 09:31:43;;;;;;;10.02;2.97;;;;;;;24.98;49.52;92747.75;4800370;29;20132;-76
2022/06/13 09:34:27;;;;;;;10.18;3.00;;;;;;;25.03;48.51;92752.75;4771538;30;20041;-76
2022/06/13 09:37:08;;;;;;;7.03;2.67;;;;;;;25.10;50.11;92750.13;4787242;29;20043;-76
2022/06/13 09:39:33;;;;;;;4.73;2.20;;;;;;;25.22;48.16;92751.81;4802211;29;20053;-76
2022/06/13 09:42:21;;;;;;;6.22;2.47;;;;;;;25.45;47.14;92740.09;4800431;29;20673;-79
2022/06/13 09:44:52;;;;;;;5.53;2.55;;;;;;;25.58;46.86;92749.38;4806600;29;20035;-77
2022/06/13 09:47:37;;;;;;;5.18;2.70;;;;;;;25.41;47.29;92748.09;4808313;29;20584;-77
2022/06/13 09:50:11;;;;;;;4.70;2.75;;;;;;;25.41;47.03;92748.09;4805504;29;20058;-77
2022/06/13 09:52:42;;;;;;;6.15;2.50;;;;;;;25.58;44.83;92751.25;4812436;29;20070;-78
2022/06/13 09:55:21;;;;;;;8.60;2.60;;;;;;;25.66;44.59;92745.56;4788791;29;20043;-77
2022/06/13 09:58:08;;;;;;;5.18;2.60;;;;;;;25.83;47.49;92732.66;4790418;29;20030;-77
2022/06/13 10:00:53;;;;;;;4.63;2.40;;;;;;;25.68;47.35;92739.84;4787819;29;20118;-76
2022/06/13 10:03:39;;;;;;;6.50;2.80;;;;;;;25.81;48.11;92724.22;4811035;29;20039;-77
2022/06/13 10:06:30;;;;;;;5.70;3.00;;;;;;;25.85;47.84;92720.41;4800201;29;20042;-77
2022/06/13 10:09:14;;;;;;;5.53;2.70;;;;;;;25.77;45.00;92724.94;4783501;29;20134;-77
2022/06/13 10:12:07;;;;;;;5.13;2.55;;;;;;;25.73;46.96;92726.06;4796281;29;20521;-77
2022/06/13 10:15:10;;;;;;;6.07;2.60;;;;;;;26.05;48.76;92725.47;4786373;29;20047;-78
2022/06/13 10:21:05;;;;;;;6.20;2.90;;;;;;;26.10;44.85;92709.81;4803923;29;20047;-80
2022/06/13 10:24:13;;;;;;;4.80;3.10;;;;;;;26.25;46.89;92712.53;4797395;29;20521;-80
2022/06/13 10:27:05;;;;;;;4.90;2.63;;;;;;;26.36;45.08;92707.94;4805458;29;20043;-79
2022/06/13 10:29:52;;;;;;;5.45;2.58;;;;;;;26.49;45.46;92705.69;4787187;29;20047;-80
2022/06/13 10:33:05;;;;;;;5.50;2.40;;;;;;;26.64;46.26;92693.84;4797927;29;20039;-80
2022/06/13 10:35:50;;;;;;;7.70;2.60;;;;;;;26.87;46.16;92692.72;4797360;29;20096;-79
2022/06/13 10:38:29;;;;;;;4.68;2.85;;;;;;;27.02;45.07;92699.63;4815452;29;20038;-79
2022/06/13 10:40:55;;;;;;;4.82;2.53;;;;;;;27.15;44.76;92686.56;4817807;29;20034;-79
2022/06/13 10:43:21;;;;;;;4.18;2.67;;;;;;;27.44;42.48;92690.00;4818135;29;20422;-79
2022/06/13 10:45:47;;;;;;;7.05;2.80;;;;;;;27.30;43.44;92687.34;4815428;29;20037;-79
2022/06/13 10:48:22;;;;;;;4.25;2.30;;;;;;;27.44;44.44;92692.69;4792390;29;20047;-79
2022/06/13 10:50:56;;;;;;;5.43;2.67;;;;;;;27.28;45.59;92684.28;4795301;29;20047;-80
2022/06/13 10:53:38;;;;;;;7.93;2.83;;;;;;;27.16;43.31;92691.56;4796234;29;20425;-80
2022/06/13 10:56:10;;;;;;;4.95;2.70;;;;;;;26.90;43.56;92675.84;4801789;29;20034;-80
2022/06/13 10:59:01;;;;;;;5.80;2.53;;;;;;;26.77;43.73;92678.91;4813814;29;20132;-80
2022/06/13 11:01:29;;;;;;;7.22;2.60;;;;;;;26.62;43.71;92671.25;4809939;29;20084;-79
2022/06/13 11:04:15;;;;;;;5.13;2.85;;;;;;;26.79;46.66;92676.63;4801386;29;20070;-79
2022/06/13 11:06:55;;;;;;;6.97;2.83;;;;;;;26.81;45.33;92673.53;4791395;29;20108;-78
2022/06/13 11:09:21;;;;;;;5.18;2.63;;;;;;;26.90;44.32;92665.84;4791480;29;20039;-79
2022/06/13 11:11:47;;;;;;;5.55;2.85;;;;;;;26.94;44.49;92676.59;4795306;29;20485;-79
2022/06/13 11:14:26;;;;;;;6.63;2.50;;;;;;;26.95;45.46;92670.06;4808673;29;20046;-79
2022/06/13 11:22:45;;;;;;;5.57;3.00;;;;;;;27.13;42.60;92667.38;4798725;29;20375;-79
2022/06/13 11:25:20;;;;;;;7.93;2.90;;;;;;;26.82;43.90;92658.19;4795466;29;20047;-79
2022/06/13 11:28:09;;;;;;;5.30;2.70;;;;;;;26.73;46.03;92663.97;4808044;29;20047;-80
2022/06/13 11:30:53;;;;;;;6.38;2.80;;;;;;;26.87;45.24;92671.25;4793526;29;20404;-79
2022/06/13 11:33:29;;;;;;;5.20;2.50;;;;;;;26.86;44.47;92664.31;4793401;29;20054;-79
2022/06/13 11:36:14;;;;;;;5.28;3.00;;;;;;;26.78;44.43;92652.81;4792677;29;20240;-79
2022/06/13 11:38:59;;;;;;;4.53;2.70;;;;;;;27.17;42.65;92652.03;4817095;29;20054;-79
2022/06/13 11:41:42;;;;;;;4.13;2.60;;;;;;;26.89;45.64;92656.28;4791640;29;20043;-80
2022/06/13 11:44:21;;;;;;;6.38;2.70;;;;;;;26.83;47.51;92649.00;4816910;29;20084;-79
2022/06/13 11:46:53;;;;;;;5.20;2.67;;;;;;;26.98;46.05;92643.22;4794322;30;20050;-80
2022/06/13 11:49:21;;;;;;;7.80;2.85;;;;;;;26.71;46.12;92639.41;4788169;30;20093;-78
2022/06/13 11:51:56;;;;;;;4.88;2.45;;;;;;;26.79;46.83;92651.66;4790503;29;20027;-79
2022/06/13 11:54:51;;;;;;;6.80;2.78;;;;;;;26.49;46.64;92652.78;4812433;29;20053;-80
2022/06/13 11:57:34;;;;;;;5.13;2.95;;;;;;;26.49;46.04;92652.00;4813612;29;20050;-80
2022/06/13 12:03:24;;;;;;;4.22;2.63;;;;;;;26.34;50.15;92656.56;4812904;29;20047;-80
2022/06/13 12:05:58;;;;;;;4.75;2.58;;;;;;;26.25;47.55;92643.53;4802703;29;20043;-80
2022/06/13 12:08:29;;;;;;;5.65;2.50;;;;;;;26.30;48.65;92642.38;4803448;30;20427;-79
2022/06/13 12:14:44;;;;;;;5.07;2.78;;;;;;;26.16;50.27;92645.81;4786829;30;20066;-79
2022/06/13 12:24:08;;;;;;;5.85;3.05;;;;;;;26.68;46.71;92649.00;4798339;30;20047;-77
2022/06/13 12:26:42;;;;;;;5.93;3.10;;;;;;;26.41;46.13;92650.47;4791043;29;20043;-77
2022/06/13 12:29:17;;;;;;;6.93;2.80;;;;;;;26.74;46.93;92652.81;4778888;30;20039;-77
2022/06/13 12:31:45;;;;;;;4.32;2.70;;;;;;;26.73;46.57;92648.59;4790572;30;20035;-77
2022/06/13 12:34:25;;;;;;;5.30;2.97;;;;;;;27.06;47.32;92657.41;4773785;30;20406;-77
2022/06/13 12:37:12;;;;;;;6.60;3.20;;;;;;;27.37;44.08;92649.72;4773150;30;20039;-77
2022/06/13 12:39:56;;;;;;;6.07;2.78;;;;;;;27.45;44.76;92656.63;4781184;29;20045;-77
2022/06/13 12:42:24;;;;;;;4.40;2.92;;;;;;;27.67;43.06;92651.16;4806651;29;20417;-77